Time;durP1;ratioP1;P1;durP2;ratioP2;P2;SDS_P1;SDS_P2;PMS_P1;PMS_P2;Temp;Humidity;BMP_temperature;BMP_pressure;BME280_temperature;BME280_humidity;BME280_pressure;Samples;Min_cycle;Max_cycle;Signal;HPM_P1;HPM_P2
2022/08/21 00:00:21;;;;;;;16.25;11.75;;;;;;;19.44;100.00;100018.78;4984345;28;20084;-75
2022/08/21 00:02:52;;;;;;;14.32;11.63;;;;;;;19.42;100.00;100015.66;5001054;28;20053;-76
2022/08/21 00:05:18;;;;;;;;;;;;;;;19.41;100.00;100011.22;5002012;28;20061;-75
2022/08/21 00:07:45;;;;;;;15.05;11.90;;;;;;;19.39;100.00;100005.97;5018485;28;19936;-75
2022/08/21 00:10:12;;;;;;;17.50;12.55;;;;;;;19.38;100.00;100001.53;5017975;28;20041;-75
2022/08/21 00:12:40;;;;;;;18.95;12.57;;;;;;;19.32;100.00;100011.66;5000570;28;20034;-75
2022/08/21 00:15:26;;;;;;;19.42;13.38;;;;;;;19.26;100.00;100002.34;5000847;28;20095;-76
2022/08/21 00:17:52;;;;;;;19.15;13.25;;;;;;;19.21;100.00;99998.25;5016801;28;20057;-75
2022/08/21 00:20:20;;;;;;;20.75;13.23;;;;;;;19.15;100.00;100006.28;5000776;28;20042;-74
2022/08/21 00:22:47;;;;;;;18.13;12.50;;;;;;;19.08;100.00;99996.09;5016976;28;20108;-74
2022/08/21 00:25:21;;;;;;;18.13;12.63;;;;;;;19.01;100.00;99996.03;5000434;28;20512;-75
2022/08/21 00:27:49;;;;;;;18.75;12.13;;;;;;;18.94;100.00;99990.91;5017703;28;20026;-75
2022/08/21 00:30:17;;;;;;;21.30;13.60;;;;;;;18.91;100.00;99994.94;5017638;28;20029;-76
2022/08/21 00:32:45;;;;;;;19.48;12.95;;;;;;;18.88;100.00;99991.03;5000108;28;20364;-76
2022/08/21 00:35:17;;;;;;;17.98;12.95;;;;;;;18.84;100.00;99992.69;5016525;28;20038;-75
2022/08/21 00:37:43;;;;;;;17.67;12.52;;;;;;;18.82;100.00;99998.28;5016428;28;20057;-75
2022/08/21 00:40:14;;;;;;;15.65;12.05;;;;;;;18.81;100.00;99982.25;5016078;28;20076;-75
2022/08/21 00:42:42;;;;;;;19.40;13.13;;;;;;;18.82;100.00;99986.69;5016534;28;20134;-75
2022/08/21 00:45:24;;;;;;;20.67;12.98;;;;;;;18.84;100.00;99986.91;4999772;28;20502;-75
2022/08/21 00:47:53;;;;;;;16.80;12.10;;;;;;;18.83;100.00;99983.22;5017602;28;20025;-75
2022/08/21 00:50:20;;;;;;;17.38;11.48;;;;;;;;;;5015688;28;20523;-75
2022/08/21 00:52:46;;;;;;;15.88;10.93;;;;;;;18.78;100.00;99983.34;5017219;28;20049;-76
2022/08/21 00:55:12;;;;;;;17.55;12.57;;;;;;;18.77;100.00;99978.91;4999513;28;20475;-76
2022/08/21 00:57:44;;;;;;;13.93;10.30;;;;;;;18.77;100.00;99979.66;4999709;28;20034;-75
2022/08/21 01:00:14;;;;;;;17.23;11.40;;;;;;;18.77;100.00;99984.69;4998556;28;20073;-75
2022/08/21 01:02:40;;;;;;;15.27;10.75;;;;;;;18.77;100.00;99979.66;5017214;28;20164;-75
2022/08/21 01:05:07;;;;;;;14.52;10.60;;;;;;;18.80;100.00;99977.78;5015674;28;20451;-75
2022/08/21 01:07:33;;;;;;;13.00;9.68;;;;;;;18.79;100.00;99964.66;5015804;28;20379;-76
2022/08/21 01:09:58;;;;;;;13.10;9.40;;;;;;;18.74;100.00;99960.53;5015570;28;20490;-75
2022/08/21 01:12:24;;;;;;;14.60;9.65;;;;;;;18.73;100.00;99958.19;5017129;28;20033;-76
2022/08/21 01:14:51;;;;;;;14.32;9.27;;;;;;;18.69;100.00;99955.63;4999381;28;20026;-76
2022/08/21 01:17:22;;;;;;;11.80;8.43;;;;;;;18.64;100.00;99954.41;4999316;28;20486;-74
2022/08/21 01:19:49;;;;;;;11.50;8.60;;;;;;;18.59;100.00;99943.75;5015259;28;20054;-75
2022/08/21 01:22:14;;;;;;;12.63;8.63;;;;;;;18.57;100.00;99940.59;5017228;28;20026;-77
2022/08/21 01:24:41;;;;;;;12.93;9.75;;;;;;;18.50;100.00;99926.84;5016180;28;20025;-74
2022/08/21 01:27:21;;;;;;;11.85;8.43;;;;;;;18.50;100.00;99928.94;5015731;28;20029;-75
2022/08/21 01:30:01;;;;;;;11.60;7.85;;;;;;;18.46;100.00;99925.63;4999125;28;20474;-74
2022/08/21 01:32:27;;;;;;;11.45;7.82;;;;;;;18.43;100.00;99918.81;5015621;28;20065;-75
2022/08/21 01:34:53;;;;;;;11.15;7.38;;;;;;;18.40;100.00;99902.56;5015874;28;20463;-76
2022/08/21 01:37:20;;;;;;;11.23;7.75;;;;;;;18.35;100.00;99902.69;5015429;28;20049;-76
2022/08/21 01:40:01;;;;;;;9.05;6.97;;;;;;;18.35;100.00;99888.22;5016311;28;20414;-75
2022/08/21 01:42:26;;;;;;;10.18;7.40;;;;;;;18.34;100.00;99886.66;5016448;28;20379;-75
2022/08/21 01:44:52;;;;;;;12.63;9.00;;;;;;;18.35;100.00;99889.00;5016545;28;20022;-76
2022/08/21 01:47:18;;;;;;;12.15;7.85;;;;;;;18.36;100.00;99893.47;5016698;28;20026;-76
2022/08/21 01:49:45;;;;;;;10.82;8.05;;;;;;;18.38;100.00;99887.88;5014533;28;20034;-76
2022/08/21 01:52:15;;;;;;;13.75;8.90;;;;;;;18.40;100.00;99891.00;5015094;28;20087;-76
2022/08/21 01:54:40;;;;;;;15.10;9.20;;;;;;;18.40;100.00;99891.00;5015724;28;20059;-76
2022/08/21 01:57:09;;;;;;;12.73;8.68;;;;;;;18.40;100.00;99898.91;5015347;28;20045;-76
2022/08/21 01:59:37;;;;;;;12.80;7.57;;;;;;;18.34;100.00;99901.91;4999242;28;20030;-76
2022/08/21 02:02:05;;;;;;;10.00;7.22;;;;;;;18.29;100.00;99908.56;5016277;28;20137;-76
2022/08/21 02:04:30;;;;;;;10.55;7.20;;;;;;;18.24;100.00;99903.66;5015754;28;20034;-76
2022/08/21 02:06:59;;;;;;;9.70;7.13;;;;;;;18.24;100.00;99900.75;5016355;28;20037;-77
2022/08/21 02:09:25;;;;;;;9.25;6.53;;;;;;;18.23;100.00;99907.88;5016233;28;20037;-76
2022/08/21 02:11:52;;;;;;;10.85;7.35;;;;;;;18.20;100.00;99898.22;5014570;28;20030;-76
2022/08/21 02:14:26;;;;;;;9.02;6.72;;;;;;;18.16;100.00;99897.00;5014646;28;20060;-75
2022/08/21 02:16:52;;;;;;;7.97;6.75;;;;;;;18.12;100.00;99890.78;5016033;28;20084;-74
2022/08/21 02:19:18;;;;;;;8.77;6.85;;;;;;;18.14;100.00;99896.75;4997931;28;20026;-76
2022/08/21 02:21:45;;;;;;;8.07;6.63;;;;;;;18.15;100.00;99883.88;5015576;28;20131;-76
2022/08/21 02:24:11;;;;;;;6.97;5.03;;;;;;;18.14;100.00;99885.97;5015594;28;20034;-75
2022/08/21 02:26:38;;;;;;;5.90;4.60;;;;;;;18.06;100.00;99875.63;5014668;28;20080;-76
2022/08/21 02:29:13;;;;;;;5.85;3.80;;;;;;;18.03;100.00;99876.75;5015672;28;20034;-75
2022/08/21 02:31:40;;;;;;;4.25;3.60;;;;;;;18.01;100.00;99879.41;4997564;28;20030;-76
2022/08/21 02:34:06;;;;;;;5.78;3.80;;;;;;;17.96;100.00;99877.41;5015309;28;20052;-75
2022/08/21 02:36:34;;;;;;;3.72;3.40;;;;;;;17.93;100.00;99876.41;5014340;28;20025;-76
2022/08/21 02:39:00;;;;;;;6.43;4.30;;;;;;;17.90;100.00;99874.63;4997411;28;20029;-75
2022/08/21 02:41:28;;;;;;;4.20;3.22;;;;;;;17.93;100.00;99873.50;5014261;28;20112;-77
2022/08/21 02:43:55;;;;;;;3.42;3.10;;;;;;;17.92;100.00;99879.88;5015632;28;20059;-75
2022/08/21 02:46:21;;;;;;;3.97;3.45;;;;;;;17.85;100.00;99881.28;5014274;28;20026;-76
2022/08/21 02:48:48;;;;;;;3.60;3.30;;;;;;;17.85;100.00;99881.28;5014247;28;20029;-75
2022/08/21 02:51:17;;;;;;;4.13;3.03;;;;;;;17.82;100.00;99877.41;5013831;28;20049;-74
2022/08/21 02:53:45;;;;;;;5.20;3.55;;;;;;;17.81;100.00;99881.63;4981619;28;20075;-75
2022/08/21 02:56:14;;;;;;;3.40;2.83;;;;;;;17.81;100.00;99869.28;4997661;28;20042;-75
2022/08/21 02:58:44;;;;;;;3.80;2.92;;;;;;;17.80;100.00;99882.97;4997856;28;20432;-75
2022/08/21 03:01:11;;;;;;;4.63;3.65;;;;;;;17.79;100.00;99883.50;5013630;28;20026;-75
2022/08/21 03:03:41;;;;;;;5.90;2.97;;;;;;;17.79;100.00;99887.19;5013506;28;20042;-75
2022/08/21 03:06:21;;;;;;;5.55;3.10;;;;;;;17.78;100.00;99888.50;5013512;28;20125;-75
2022/08/21 03:08:49;;;;;;;5.47;3.30;;;;;;;17.79;100.00;99887.19;5014132;28;20033;-74
2022/08/21 03:11:15;;;;;;;3.75;3.33;;;;;;;17.76;100.00;99885.41;4981141;28;20046;-76
2022/08/21 03:13:42;;;;;;;4.70;3.78;;;;;;;17.76;100.00;99891.19;4997170;28;20034;-76
2022/08/21 03:16:08;;;;;;;3.45;2.85;;;;;;;17.76;100.00;99885.41;4997284;28;20113;-76
2022/08/21 03:18:35;;;;;;;4.57;3.03;;;;;;;17.74;100.00;99887.28;4997218;28;20482;-75
2022/08/21 03:21:01;;;;;;;5.18;3.50;;;;;;;17.77;100.00;99884.06;5014550;28;20099;-74
2022/08/21 03:23:30;;;;;;;3.40;3.10;;;;;;;17.74;100.00;99888.06;4996680;28;20414;-76
2022/08/21 03:25:58;;;;;;;4.03;3.50;;;;;;;17.73;100.00;99885.75;5014942;28;20069;-76
2022/08/21 03:28:24;;;;;;;5.10;3.10;;;;;;;17.71;100.00;99882.63;5014669;28;20467;-76
2022/08/21 03:30:51;;;;;;;3.25;2.88;;;;;;;17.70;100.00;99887.59;5013314;28;20062;-76
2022/08/21 03:33:17;;;;;;;4.20;3.33;;;;;;;17.67;100.00;99890.84;4997042;28;20125;-76
2022/08/21 03:36:00;;;;;;;4.47;3.33;;;;;;;17.68;100.00;99892.41;5013415;28;20083;-76
2022/08/21 03:38:28;;;;;;;2.90;2.70;;;;;;;17.66;100.00;99890.06;5014741;28;20026;-75
2022/08/21 03:40:54;;;;;;;3.08;2.60;;;;;;;17.66;100.00;99892.94;4997204;28;20076;-75
2022/08/21 03:43:20;;;;;;;2.63;2.20;;;;;;;17.62;100.00;99901.16;4996770;28;20025;-76
2022/08/21 03:45:45;;;;;;;2.72;2.53;;;;;;;17.63;100.00;99899.84;5013404;28;20064;-76
2022/08/21 03:48:12;;;;;;;3.40;2.75;;;;;;;17.63;100.00;99899.84;5013349;28;20468;-76
2022/08/21 03:50:41;;;;;;;3.40;2.60;;;;;;;17.64;100.00;99903.47;5012755;28;20042;-75
2022/08/21 03:53:10;;;;;;;2.75;2.45;;;;;;;17.62;100.00;99909.06;5013331;28;20045;-76
2022/08/21 03:55:37;;;;;;;3.30;2.97;;;;;;;17.65;100.00;99913.72;5013060;28;20376;-75
2022/08/21 03:58:04;;;;;;;4.25;3.10;;;;;;;17.66;100.00;99904.50;4996559;28;20033;-75
2022/08/21 04:00:31;;;;;;;4.78;2.72;;;;;;;17.64;100.00;99904.25;5013574;28;20038;-75
2022/08/21 04:02:56;;;;;;;3.72;3.00;;;;;;;17.68;100.00;99913.41;5014431;28;20379;-76
2022/08/21 04:05:30;;;;;;;3.08;2.80;;;;;;;17.70;100.00;99910.72;5013334;28;20030;-75
2022/08/21 04:08:02;;;;;;;4.38;3.63;;;;;;;17.71;100.00;99908.63;5014569;28;20072;-75
2022/08/21 04:10:30;;;;;;;3.10;2.80;;;;;;;17.70;100.00;99912.84;5012901;28;20080;-75
2022/08/21 04:12:58;;;;;;;3.95;3.00;;;;;;;17.71;100.00;99911.50;4996947;28;20029;-75
2022/08/21 04:15:26;;;;;;;4.03;3.13;;;;;;;17.71;100.00;99920.19;5013241;28;20221;-75
2022/08/21 04:17:51;;;;;;;4.55;3.78;;;;;;;17.73;100.00;99915.41;4996977;28;20137;-75
2022/08/21 04:20:18;;;;;;;3.53;3.17;;;;;;;17.74;100.00;99902.50;5013638;28;20133;-75
2022/08/21 04:22:44;;;;;;;3.72;3.05;;;;;;;17.73;100.00;99906.72;5013322;28;20065;-75
2022/08/21 04:25:12;;;;;;;5.18;3.28;;;;;;;17.65;100.00;99907.94;5014048;28;20065;-76
2022/08/21 04:27:40;;;;;;;4.13;3.50;;;;;;;17.64;100.00;99904.25;5013474;28;20073;-78
2022/08/21 04:30:08;;;;;;;5.13;3.35;;;;;;;17.64;100.00;99912.16;5014368;28;20026;-76
2022/08/21 04:32:34;;;;;;;4.47;3.55;;;;;;;17.65;100.00;99908.72;5012957;28;20057;-75
2022/08/21 04:35:02;;;;;;;4.32;3.88;;;;;;;17.65;100.00;99920.28;5014341;28;20026;-74
2022/08/21 04:37:30;;;;;;;4.30;3.78;;;;;;;17.66;100.00;99921.84;5016362;28;20025;-75
2022/08/21 04:39:58;;;;;;;4.10;2.83;;;;;;;17.64;100.00;99924.50;5015657;28;20482;-76
2022/08/21 04:42:44;;;;;;;3.55;3.25;;;;;;;17.66;100.00;99921.84;5016191;28;20026;-76
2022/08/21 04:45:32;;;;;;;4.05;3.10;;;;;;;17.66;100.00;99936.28;5017729;28;20466;-76
2022/08/21 04:48:01;;;;;;;3.80;3.15;;;;;;;17.66;100.00;99933.41;5017176;28;20022;-76
2022/08/21 04:51:05;;;;;;;3.63;3.05;;;;;;;17.67;100.00;99934.97;5017147;28;20032;-75
2022/08/21 04:53:35;;;;;;;3.60;2.78;;;;;;;17.67;100.00;99926.28;5017220;28;20029;-76
2022/08/21 04:56:23;;;;;;;3.30;3.00;;;;;;;17.69;100.00;99926.50;5016385;28;20033;-76
2022/08/21 04:58:51;;;;;;;4.53;3.10;;;;;;;17.74;100.00;99930.63;5017118;28;20034;-76
2022/08/21 05:01:21;;;;;;;3.33;3.03;;;;;;;17.79;100.00;99926.84;5015749;28;20038;-75
2022/08/21 05:03:48;;;;;;;3.92;3.53;;;;;;;17.81;100.00;99936.56;4999362;28;20065;-76
2022/08/21 05:06:15;;;;;;;4.07;3.63;;;;;;;17.89;100.00;99947.44;4999400;28;20535;-74
2022/08/21 05:08:43;;;;;;;4.53;3.10;;;;;;;17.89;100.00;99947.44;4999256;28;20030;-76
2022/08/21 05:11:23;;;;;;;3.40;3.10;;;;;;;17.92;100.00;99946.34;5016816;28;20033;-76
2022/08/21 05:13:50;;;;;;;3.38;3.08;;;;;;;17.94;100.00;99956.03;5015338;28;20033;-75
2022/08/21 05:16:16;;;;;;;2.90;2.70;;;;;;;17.92;100.00;99940.56;5015317;28;20030;-76
2022/08/21 05:18:42;;;;;;;2.83;2.53;;;;;;;17.93;100.00;99947.94;5015251;28;20075;-76
2022/08/21 05:21:09;;;;;;;2.78;2.53;;;;;;;17.96;100.00;99952.59;5016102;28;20096;-76
2022/08/21 05:23:36;;;;;;;2.50;2.30;;;;;;;17.97;100.00;99954.16;5015410;28;20505;-76
2022/08/21 05:26:04;;;;;;;2.60;2.40;;;;;;;18.02;100.00;99970.63;4982737;28;20368;-74
2022/08/21 05:28:31;;;;;;;2.50;2.30;;;;;;;18.02;100.00;99974.28;5016512;28;20029;-75
2022/08/21 05:30:57;;;;;;;2.90;2.60;;;;;;;18.04;100.00;99977.41;5015087;28;20033;-74
2022/08/21 05:33:24;;;;;;;2.70;2.50;;;;;;;18.09;100.00;99975.72;5015193;28;20387;-75
2022/08/21 05:35:51;;;;;;;2.63;2.10;;;;;;;18.11;100.00;99978.88;5014848;28;20036;-76
2022/08/21 05:38:19;;;;;;;2.67;2.30;;;;;;;18.11;100.00;99987.53;4998883;28;20034;-75
2022/08/21 05:40:46;;;;;;;2.28;2.08;;;;;;;18.12;100.00;99992.00;4982337;28;20034;-75
2022/08/21 05:43:12;;;;;;;5.32;2.55;;;;;;;18.10;100.00;99983.88;4998791;28;20088;-76
2022/08/21 05:45:37;;;;;;;2.60;2.40;;;;;;;18.11;100.00;99997.00;5014655;28;20029;-76
2022/08/21 05:48:11;;;;;;;3.10;2.67;;;;;;;18.07;100.00;99998.66;5014253;28;20124;-76
2022/08/21 05:50:38;;;;;;;3.05;2.40;;;;;;;18.08;100.00;99997.34;4998083;28;20072;-76
2022/08/21 05:53:05;;;;;;;2.78;2.20;;;;;;;18.03;100.00;100009.78;5014698;28;20127;-76
2022/08/21 05:55:31;;;;;;;2.95;2.65;;;;;;;17.99;100.00;100009.31;5016008;28;20022;-76
2022/08/21 05:57:58;;;;;;;3.28;2.60;;;;;;;17.96;100.00;100010.41;5015899;28;20065;-76
2022/08/21 06:00:24;;;;;;;3.63;2.78;;;;;;;17.94;100.00;100010.19;5016316;28;20022;-76
2022/08/21 06:02:51;;;;;;;3.83;2.78;;;;;;;17.89;100.00;100011.84;4998377;28;20368;-76
2022/08/21 06:05:18;;;;;;;4.60;3.17;;;;;;;17.88;100.00;100013.19;5014712;28;20030;-76
2022/08/21 06:07:45;;;;;;;3.25;2.67;;;;;;;17.85;100.00;100020.06;5015978;28;20030;-76
2022/08/21 06:10:10;;;;;;;4.70;2.70;;;;;;;17.80;100.00;100018.03;5015979;28;20077;-76
2022/08/21 06:12:44;;;;;;;3.75;2.38;;;;;;;17.72;100.00;100015.03;5014434;28;20029;-75
2022/08/21 06:15:09;;;;;;;3.83;2.78;;;;;;;17.69;100.00;100012.44;4997685;28;20109;-75
2022/08/21 06:17:36;;;;;;;3.35;3.05;;;;;;;17.61;100.00;100017.28;5014162;28;20514;-75
2022/08/21 06:20:03;;;;;;;4.93;2.67;;;;;;;17.54;100.00;100015.03;5015748;28;20475;-75
2022/08/21 06:22:29;;;;;;;3.88;2.70;;;;;;;17.45;100.00;100019.09;5014208;28;20021;-77
2022/08/21 06:24:54;;;;;;;4.38;3.00;;;;;;;17.40;100.00;100040.16;5014309;28;20026;-76
2022/08/21 06:27:19;;;;;;;4.95;2.92;;;;;;;17.34;100.00;100045.22;5015134;28;20025;-76
2022/08/21 06:29:46;;;;;;;4.18;2.97;;;;;;;17.27;100.00;100052.44;5015171;28;20076;-75
2022/08/21 06:32:12;;;;;;;6.43;2.97;;;;;;;17.24;100.00;100052.75;5013631;28;20432;-75
2022/08/21 06:34:39;;;;;;;6.32;3.72;;;;;;;17.18;100.00;100047.06;5013759;28;20068;-74
2022/08/21 06:37:07;;;;;;;4.40;2.72;;;;;;;17.12;100.00;100049.22;4997772;28;20034;-74
2022/08/21 06:39:34;;;;;;;4.43;3.53;;;;;;;17.07;100.00;100063.72;4981115;28;20040;-75
2022/08/21 06:42:00;;;;;;;4.68;2.63;;;;;;;17.01;100.00;100065.91;5015074;28;20022;-75
2022/08/21 06:44:25;;;;;;;3.70;2.88;;;;;;;16.98;100.00;100064.91;5013839;28;20471;-76
2022/08/21 06:46:51;;;;;;;2.92;2.67;;;;;;;16.94;100.00;100070.19;5013553;28;20045;-76
2022/08/21 06:49:17;;;;;;;6.05;3.55;;;;;;;16.94;100.00;100070.97;5013401;28;20037;-76
2022/08/21 06:51:43;;;;;;;4.82;3.20;;;;;;;16.94;100.00;100073.09;4997197;28;20364;-76
2022/08/21 06:54:10;;;;;;;5.97;3.58;;;;;;;16.92;100.00;100070.75;5014778;28;20029;-76
2022/08/21 06:56:38;;;;;;;7.25;3.55;;;;;;;16.96;100.00;100074.09;4997157;28;20061;-76
2022/08/21 06:59:18;;;;;;;4.93;3.50;;;;;;;16.88;100.00;100081.03;4996646;28;20116;-76
2022/08/21 07:01:44;;;;;;;8.15;4.25;;;;;;;16.76;100.00;100076.69;4997135;28;20053;-76
2022/08/21 07:04:11;;;;;;;8.75;3.70;;;;;;;16.61;100.00;100091.53;4997179;28;20021;-75
2022/08/21 07:06:37;;;;;;;5.75;4.10;;;;;;;16.52;100.00;100097.66;5014865;28;20057;-75
2022/08/21 07:09:03;;;;;;;7.88;4.32;;;;;;;16.46;100.00;100094.81;5013305;28;20034;-77
2022/08/21 07:11:29;;;;;;;8.23;4.97;;;;;;;16.42;100.00;100088.56;5013479;28;20534;-76
2022/08/21 07:13:56;;;;;;;8.68;6.00;;;;;;;16.33;100.00;100094.69;5013981;28;20068;-76
2022/08/21 07:16:23;;;;;;;8.50;5.43;;;;;;;16.19;100.00;100092.97;4981139;28;20037;-75
2022/08/21 07:18:49;;;;;;;8.18;5.35;;;;;;;16.05;100.00;100089.16;4996937;28;20493;-75
2022/08/21 07:21:15;;;;;;;7.10;5.70;;;;;;;15.93;100.00;100093.44;5014185;28;20050;-76
2022/08/21 07:23:44;;;;;;;9.23;5.18;;;;;;;15.83;100.00;100097.97;5013097;28;20037;-75
2022/08/21 07:26:16;;;;;;;12.00;5.80;;;;;;;15.75;100.00;100088.34;5012748;28;20467;-76
2022/08/21 07:28:43;;;;;;;9.73;6.05;;;;;;;15.71;100.00;100084.97;5012948;28;20045;-76
2022/08/21 07:31:10;;;;;;;10.93;5.95;;;;;;;15.64;100.00;100089.22;4996446;28;20088;-76
2022/08/21 07:33:36;;;;;;;8.32;5.90;;;;;;;15.58;100.00;100084.75;4980746;28;20041;-75
2022/08/21 07:36:03;;;;;;;11.90;6.28;;;;;;;15.59;100.00;100083.47;5014508;28;20110;-75
2022/08/21 07:38:29;;;;;;;10.93;5.85;;;;;;;15.60;100.00;100062.78;4981664;28;20037;-76
2022/08/21 07:41:15;;;;;;;10.80;6.40;;;;;;;15.61;100.00;100075.09;5015138;28;20054;-76
2022/08/21 07:43:41;;;;;;;13.65;7.03;;;;;;;15.63;100.00;100073.22;4999971;28;20060;-76
2022/08/21 07:46:10;;;;;;;14.10;6.57;;;;;;;15.67;100.00;100084.47;5015905;28;20030;-75
2022/08/21 07:48:44;;;;;;;10.77;7.50;;;;;;;15.58;100.00;100091.31;5012568;28;20060;-75
2022/08/21 07:51:13;;;;;;;10.32;5.68;;;;;;;15.59;100.00;100095.00;5014232;28;20025;-75
2022/08/21 07:53:40;;;;;;;9.57;5.88;;;;;;;15.61;100.00;100080.84;5012995;28;20049;-76
2022/08/21 07:56:08;;;;;;;10.35;6.40;;;;;;;15.59;100.00;100086.34;5014458;28;20038;-77
2022/08/21 07:58:35;;;;;;;10.48;6.57;;;;;;;15.61;100.00;100081.63;4983246;28;20159;-77
2022/08/21 08:01:00;;;;;;;10.85;5.97;;;;;;;15.66;100.00;100080.03;5016424;28;20471;-77
2022/08/21 08:03:27;;;;;;;7.53;5.13;;;;;;;15.71;100.00;100076.34;5015715;28;20026;-77
2022/08/21 08:05:53;;;;;;;8.60;5.68;;;;;;;15.77;100.00;100085.69;5016106;28;20026;-76
2022/08/21 08:08:19;;;;;;;13.15;5.70;;;;;;;15.77;100.00;100096.44;5014988;28;20530;-76
2022/08/21 08:10:45;;;;;;;7.80;5.38;;;;;;;15.73;100.00;100099.63;5018969;28;20118;-75
2022/08/21 08:13:10;;;;;;;10.10;5.50;;;;;;;15.72;100.00;100100.94;5002911;28;20065;-76
2022/08/21 08:15:37;;;;;;;9.23;4.57;;;;;;;15.80;100.00;100098.28;5019540;28;20034;-76
2022/08/21 08:18:03;;;;;;;6.60;4.35;;;;;;;15.80;100.00;100104.03;5024285;28;20116;-78
2022/08/21 08:20:29;;;;;;;8.43;5.38;;;;;;;15.87;100.00;100107.09;5020715;28;20088;-75
2022/08/21 08:22:56;;;;;;;7.90;4.68;;;;;;;15.87;100.00;100118.63;5021214;28;20037;-75
2022/08/21 08:25:23;;;;;;;5.68;4.20;;;;;;;15.88;100.00;100117.31;5020839;28;20128;-77
2022/08/21 08:27:49;;;;;;;5.28;4.13;;;;;;;15.93;100.00;100110.75;5004180;28;20080;-75
2022/08/21 08:30:18;;;;;;;6.75;4.25;;;;;;;16.01;100.00;100116.69;5019201;28;20030;-76
2022/08/21 08:32:46;;;;;;;8.15;4.18;;;;;;;16.06;100.00;100118.75;5007423;28;20030;-76
2022/08/21 08:35:13;;;;;;;7.63;3.95;;;;;;;16.10;100.00;100116.38;5005533;28;20025;-77
2022/08/21 08:37:40;;;;;;;5.70;3.92;;;;;;;16.18;100.00;100117.38;5022226;28;20048;-76
2022/08/21 08:40:12;;;;;;;5.50;3.55;;;;;;;16.09;100.00;100127.13;4987689;28;20030;-76
2022/08/21 08:42:39;;;;;;;5.47;3.92;;;;;;;15.89;100.00;100127.53;5019700;28;20024;-76
2022/08/21 08:45:12;;;;;;;6.20;3.85;;;;;;;15.99;100.00;100139.53;5021187;28;20394;-76
2022/08/21 08:47:44;;;;;;;7.47;4.00;;;;;;;16.08;100.00;100134.22;5003618;28;20483;-75
2022/08/21 08:50:21;;;;;;;7.13;3.33;;;;;;;16.18;100.00;100142.53;5001451;28;20025;-76
2022/08/21 08:52:54;;;;;;;6.72;4.45;;;;;;;16.19;100.00;100144.88;5017522;28;20030;-77
2022/08/21 08:55:26;;;;;;;6.75;3.42;;;;;;;16.37;100.00;100135.53;4985029;28;20486;-76
2022/08/21 08:57:54;;;;;;;5.38;3.55;;;;;;;16.42;100.00;100136.81;5003083;28;20026;-76
2022/08/21 09:00:22;;;;;;;6.00;3.72;;;;;;;16.67;100.00;100144.22;5018975;28;20030;-76
2022/08/21 09:02:53;;;;;;;6.32;3.50;;;;;;;17.02;100.00;100151.19;4985161;28;20041;-78
2022/08/21 09:05:25;;;;;;;4.43;3.75;;;;;;;17.27;100.00;100146.97;5016068;28;20029;-78
2022/08/21 09:08:15;;;;;;;4.20;3.00;;;;;;;17.35;100.00;100150.78;5017486;28;20425;-79
2022/08/21 09:10:59;;;;;;;6.43;3.45;;;;;;;17.55;100.00;100155.28;5017739;28;20045;-78
2022/08/21 09:14:04;;;;;;;4.95;3.05;;;;;;;17.60;100.00;100151.56;5017489;28;20022;-78
2022/08/21 09:16:57;;;;;;;3.90;3.53;;;;;;;17.45;100.00;100159.88;5015305;28;20109;-78
2022/08/21 09:19:42;;;;;;;4.45;3.30;;;;;;;17.48;100.00;100168.28;5017196;28;20049;-78
2022/08/21 09:22:09;;;;;;;4.97;2.95;;;;;;;17.54;100.00;100168.19;5015509;28;20082;-78
2022/08/21 09:25:01;;;;;;;4.25;2.90;;;;;;;17.53;98.42;100173.19;5017115;28;20033;-78
2022/08/21 09:27:26;;;;;;;;;;;;;;;17.25;96.27;100181.38;5016882;28;20022;-78
2022/08/21 09:29:54;;;;;;;4.00;2.42;;;;;;;17.18;95.34;100179.91;5016846;28;19932;-78
2022/08/21 09:32:38;;;;;;;4.18;2.50;;;;;;;17.01;94.41;100190.03;5016252;28;20558;-78
2022/08/21 09:35:17;;;;;;;3.80;2.58;;;;;;;17.15;95.60;100183.84;5015214;28;20025;-77
2022/08/21 09:38:00;;;;;;;3.38;2.45;;;;;;;17.30;96.96;100187.09;5015798;28;20383;-78
2022/08/21 09:40:41;;;;;;;2.65;1.90;;;;;;;17.33;95.98;100185.25;5015045;28;20415;-77
2022/08/21 09:43:18;;;;;;;3.72;2.60;;;;;;;17.37;95.22;100191.47;5016359;28;20025;-78
2022/08/21 09:45:46;;;;;;;4.07;2.00;;;;;;;17.43;94.52;100192.22;5016147;28;20105;-77
2022/08/21 09:48:22;;;;;;;5.35;2.50;;;;;;;17.38;93.06;100190.94;4998821;28;20561;-77
2022/08/21 09:51:10;;;;;;;4.30;2.90;;;;;;;17.41;92.37;100174.63;5015164;28;20494;-77
2022/08/21 09:53:42;;;;;;;4.85;2.30;;;;;;;17.59;93.34;100185.44;5016000;28;20398;-77
2022/08/21 09:59:33;;;;;;;3.67;1.67;;;;;;;17.96;91.45;100175.22;5006327;28;20038;-77
2022/08/21 10:02:02;;;;;;;3.05;1.73;;;;;;;18.18;90.21;100177.75;5014846;28;20029;-78
2022/08/21 10:04:29;;;;;;;2.67;2.47;;;;;;;18.27;88.11;100172.38;4998540;28;20053;-78
2022/08/21 10:07:08;;;;;;;3.15;1.73;;;;;;;18.55;88.13;100186.41;5015640;28;20430;-78
2022/08/21 10:09:34;;;;;;;2.28;1.90;;;;;;;18.71;86.45;100180.88;5015916;28;20360;-78
2022/08/21 10:12:23;;;;;;;3.50;1.80;;;;;;;18.77;84.95;100188.13;5016003;28;20026;-78
2022/08/21 10:14:57;;;;;;;3.30;1.73;;;;;;;18.38;82.92;100190.91;5014940;28;20049;-78
2022/08/21 10:17:43;;;;;;;3.42;2.13;;;;;;;18.27;84.69;100189.75;5014355;28;20113;-78
2022/08/21 10:20:51;;;;;;;2.05;1.38;;;;;;;18.06;84.00;100193.75;5015430;28;20452;-77
2022/08/21 10:23:42;;;;;;;4.40;1.92;;;;;;;17.88;83.81;100195.31;5015540;28;20044;-77
2022/08/21 10:26:43;;;;;;;2.10;1.52;;;;;;;17.72;84.19;100190.53;5015357;28;20073;-77
2022/08/21 10:29:25;;;;;;;3.05;1.52;;;;;;;17.89;86.05;100201.88;5011018;28;20036;-77
2022/08/21 10:31:58;;;;;;;2.47;1.70;;;;;;;17.95;85.43;100188.91;5014047;28;20029;-77
2022/08/21 10:34:24;;;;;;;2.50;1.33;;;;;;;18.06;85.63;100190.84;5014161;28;20109;-77
2022/08/21 10:37:15;;;;;;;1.77;1.50;;;;;;;18.12;84.97;100189.44;5015692;28;20037;-78
2022/08/21 10:39:48;;;;;;;1.87;1.60;;;;;;;18.37;85.39;100183.56;5013907;28;20432;-78
2022/08/21 10:42:43;;;;;;;3.65;2.03;;;;;;;18.48;83.59;100178.38;5014185;28;20053;-78
2022/08/21 10:45:15;;;;;;;4.00;1.95;;;;;;;18.43;82.60;100179.25;5013854;28;20022;-77
2022/08/21 10:48:04;;;;;;;3.63;1.77;;;;;;;18.61;83.76;100178.41;5013507;28;20094;-77
2022/08/21 10:50:44;;;;;;;4.35;2.05;;;;;;;18.69;82.61;100179.31;5013715;28;20052;-77
2022/08/21 10:53:28;;;;;;;4.35;1.80;;;;;;;18.94;83.32;100177.03;5013755;28;20586;-77
2022/08/21 10:56:13;;;;;;;3.08;1.75;;;;;;;18.95;81.33;100166.22;5013911;28;20060;-78
2022/08/21 10:59:17;;;;;;;2.25;1.70;;;;;;;19.15;81.21;100171.41;5014227;28;20079;-76
2022/08/21 11:01:53;;;;;;;3.92;1.60;;;;;;;19.22;80.22;100167.81;5015265;28;20037;-76
2022/08/21 11:04:28;;;;;;;3.78;1.88;;;;;;;19.32;80.70;100171.84;4996790;28;20398;-78
2022/08/21 11:07:00;;;;;;;2.40;1.65;;;;;;;19.30;80.23;100180.31;5013917;28;20021;-78
2022/08/21 11:09:27;;;;;;;3.80;2.15;;;;;;;18.95;79.01;100167.00;4980748;28;20176;-78
2022/08/21 11:12:03;;;;;;;2.80;1.83;;;;;;;18.89;79.83;100169.22;5013084;28;20038;-78
2022/08/21 11:14:45;;;;;;;2.90;1.92;;;;;;;18.85;79.57;100185.38;4997013;28;20492;-77
2022/08/21 11:17:13;;;;;;;4.80;2.28;;;;;;;18.63;79.32;100186.53;5013485;28;20072;-77
2022/08/21 11:19:49;;;;;;;3.38;2.40;;;;;;;18.48;79.74;100189.94;4997068;28;20034;-77
2022/08/21 11:22:44;;;;;;;4.90;2.17;;;;;;;18.32;80.19;100193.91;5014596;28;20121;-77
2022/08/21 11:25:37;;;;;;;6.07;1.88;;;;;;;18.19;80.82;100200.38;5014593;28;20481;-78
2022/08/21 11:28:09;;;;;;;3.63;2.13;;;;;;;18.22;82.11;100187.72;5013303;28;20022;-77
2022/08/21 11:30:55;;;;;;;7.20;2.58;;;;;;;18.24;81.64;100185.03;5014671;28;20084;-77
2022/08/21 11:33:30;;;;;;;3.70;2.58;;;;;;;18.18;80.64;100195.91;5014085;28;20069;-78
2022/08/21 11:36:07;;;;;;;4.13;2.45;;;;;;;18.24;81.10;100181.38;5013649;28;20028;-78
2022/08/21 11:38:51;;;;;;;2.97;2.05;;;;;;;18.15;80.04;100188.34;5014885;28;20041;-77
2022/08/21 11:41:25;;;;;;;4.97;2.88;;;;;;;18.15;79.59;100191.22;5014088;28;20498;-77